createdAt,value
2019-06-15T00:01:56.629Z,99255.87
2019-06-15T00:04:26.672Z,99230.84
2019-06-15T00:06:56.855Z,99209.11
2019-06-15T00:09:27.098Z,99219.74
2019-06-15T00:11:57.103Z,99226.39
2019-06-15T00:14:27.155Z,99217.30
2019-06-15T00:16:57.526Z,99218.84
2019-06-15T00:19:27.291Z,99211.67
2019-06-15T00:21:57.388Z,99203.28
2019-06-15T00:24:35.262Z,99195.27
2019-06-15T00:26:58.710Z,99188.86
2019-06-15T00:29:28.157Z,99187.39
2019-06-15T00:31:58.073Z,99186.15
2019-06-15T00:34:28.446Z,99180.14
2019-06-15T00:36:58.147Z,99172.72
2019-06-15T00:39:28.705Z,99181.19
2019-06-15T00:41:58.333Z,99182.20
2019-06-15T00:44:28.383Z,99186.55
2019-06-15T00:46:58.508Z,99185.63
2019-06-15T00:49:28.655Z,99180.27
2019-06-15T00:51:58.788Z,99182.27
2019-06-15T00:54:29.013Z,99177.85
2019-06-15T00:56:59.257Z,99177.97
2019-06-15T00:59:29.538Z,99178.66
2019-06-15T01:01:59.545Z,99169.48
2019-06-15T01:04:29.840Z,99169.66
2019-06-15T01:06:59.825Z,99177.87
2019-06-15T01:09:29.962Z,99189.33
2019-06-15T01:12:00.355Z,99210.78
2019-06-15T01:14:30.464Z,99218.84
2019-06-15T01:17:00.145Z,99220.41
2019-06-15T01:19:30.306Z,99218.16
2019-06-15T01:22:00.404Z,99215.41
2019-06-15T01:24:30.417Z,99214.22
2019-06-15T01:27:00.456Z,99214.63
2019-06-15T01:29:30.470Z,99212.52
2019-06-15T01:32:00.587Z,99209.66
2019-06-15T01:34:30.606Z,99214.38
2019-06-15T01:37:00.796Z,99215.12
2019-06-15T01:39:30.760Z,99215.17
2019-06-15T01:42:01.110Z,99217.78
2019-06-15T01:44:30.968Z,99217.22
2019-06-15T01:47:01.288Z,99217.80
2019-06-15T01:49:31.103Z,99218.97
2019-06-15T01:52:01.321Z,99228.25
2019-06-15T01:54:31.797Z,99245.95
2019-06-15T02:00:49.359Z,99240.89
2019-06-15T02:03:19.274Z,99202.77
2019-06-15T02:05:48.847Z,99164.59
2019-06-15T02:08:18.609Z,99138.88
2019-06-15T02:10:48.021Z,99168.57
2019-06-15T02:13:17.403Z,99187.30
2019-06-15T02:15:46.803Z,99188.20
2019-06-15T02:18:16.223Z,99168.57
2019-06-15T02:20:45.638Z,99152.53
2019-06-15T02:23:15.052Z,99149.16
2019-06-15T02:25:44.735Z,99145.31
2019-06-15T02:28:14.145Z,99145.62
2019-06-15T02:30:43.748Z,99136.23
2019-06-15T02:33:13.543Z,99145.81
2019-06-15T02:35:44.300Z,99149.83
2019-06-15T02:38:13.722Z,99159.39
2019-06-15T02:40:43.265Z,99166.08
2019-06-15T02:43:12.691Z,99163.27
2019-06-15T02:45:42.411Z,99154.98
2019-06-15T02:48:13.012Z,99142.05
2019-06-15T02:50:43.046Z,99133.68
2019-06-15T02:53:13.082Z,99125.27
2019-06-15T02:55:50.595Z,99115.86
2019-06-15T02:58:14.471Z,99125.66
2019-06-15T03:01:00.591Z,99148.03
2019-06-15T03:03:30.319Z,99190.39
2019-06-15T03:06:00.387Z,99245.00
2019-06-15T03:08:30.342Z,99278.55
2019-06-15T03:10:59.821Z,99267.22
2019-06-15T03:13:29.957Z,99247.41
2019-06-15T03:15:59.672Z,99241.05
2019-06-15T03:18:29.485Z,99234.98
2019-06-15T03:20:58.875Z,99235.69
2019-06-15T03:23:28.282Z,99241.50
2019-06-15T03:26:05.563Z,99250.97
2019-06-15T03:28:28.884Z,99248.51
2019-06-15T03:30:58.689Z,99243.42
2019-06-15T03:33:28.701Z,99228.16
2019-06-15T03:35:58.056Z,99231.14
2019-06-15T03:38:27.456Z,99233.77
2019-06-15T03:40:57.190Z,99244.69
2019-06-15T03:43:26.580Z,99253.64
2019-06-15T03:45:56.276Z,99257.25
2019-06-15T03:48:25.702Z,99264.01
2019-06-15T03:50:55.421Z,99263.53
2019-06-15T03:53:25.684Z,99264.86
2019-06-15T03:55:55.161Z,99264.81
2019-06-15T03:58:24.695Z,99256.84
2019-06-15T04:01:10.337Z,99253.44
2019-06-15T04:03:39.814Z,99254.55
2019-06-15T04:06:09.223Z,99257.21
2019-06-15T04:08:38.659Z,99259.05
2019-06-15T04:11:08.065Z,99253.18
2019-06-15T04:13:37.475Z,99241.13
2019-06-15T04:16:07.268Z,99242.98
2019-06-15T04:18:36.696Z,99251.34
2019-06-15T04:21:06.154Z,99248.84
2019-06-15T04:23:35.628Z,99246.48
2019-06-15T04:26:05.159Z,99242.63
2019-06-15T04:28:34.590Z,99239.77
2019-06-15T04:31:04.043Z,99240.59
2019-06-15T04:33:33.534Z,99236.23
2019-06-15T04:36:02.970Z,99243.40
2019-06-15T04:38:32.706Z,99240.41
2019-06-15T04:41:02.370Z,99241.20
2019-06-15T04:43:31.785Z,99231.18
2019-06-15T04:46:01.366Z,99230.77
2019-06-15T04:48:30.839Z,99231.97
2019-06-15T04:51:00.598Z,99235.77
2019-06-15T04:53:30.280Z,99241.83
2019-06-15T04:55:59.754Z,99238.90
2019-06-15T04:58:29.251Z,99233.98
2019-06-15T05:00:58.648Z,99230.11
2019-06-15T05:03:28.127Z,99224.21
2019-06-15T05:05:57.929Z,99217.81
2019-06-15T05:08:27.434Z,99218.55
2019-06-15T05:10:59.711Z,99217.78
2019-06-15T05:13:28.594Z,99228.61
2019-06-15T05:15:58.048Z,99236.35
2019-06-15T05:18:27.453Z,99234.56
2019-06-15T05:20:57.186Z,99236.23
2019-06-15T05:23:26.600Z,99237.14
2019-06-15T05:25:56.052Z,99236.11
2019-06-15T05:28:25.577Z,99235.62
2019-06-15T05:30:54.980Z,99233.04
2019-06-15T05:33:24.611Z,99238.00
2019-06-15T05:35:54.039Z,99237.31
2019-06-15T05:38:23.437Z,99241.63
2019-06-15T05:40:53.308Z,99239.26
2019-06-15T05:43:22.737Z,99240.71
2019-06-15T05:45:52.212Z,99244.36
2019-06-15T05:48:21.635Z,99247.83
2019-06-15T05:50:51.053Z,99246.45
2019-06-15T05:53:20.802Z,99254.53
2019-06-15T05:55:50.538Z,99259.44
2019-06-15T05:58:20.396Z,99260.61
2019-06-15T06:00:50.393Z,99259.47
2019-06-15T06:03:20.479Z,99259.06
2019-06-15T06:05:50.391Z,99263.87
2019-06-15T06:08:20.814Z,99267.70
2019-06-15T06:10:50.913Z,99264.41
2019-06-15T06:13:21.077Z,99266.88
2019-06-15T06:15:50.814Z,99270.05
2019-06-15T06:18:21.391Z,99272.43
2019-06-15T06:20:51.300Z,99269.09
2019-06-15T06:23:21.646Z,99269.34
2019-06-15T06:25:51.617Z,99269.77
2019-06-15T06:28:21.583Z,99266.70
2019-06-15T06:30:51.734Z,99255.81
2019-06-15T06:33:21.930Z,99254.77
2019-06-15T06:35:52.071Z,99254.91
2019-06-15T06:38:22.247Z,99262.89
2019-06-15T06:40:53.400Z,99261.30
2019-06-15T06:43:23.020Z,99266.45
2019-06-15T06:45:53.314Z,99267.78
2019-06-15T06:48:24.726Z,99275.84
2019-06-15T06:50:54.706Z,99276.46
2019-06-15T06:53:27.749Z,99272.15
2019-06-15T06:56:01.761Z,99276.11
2019-06-15T06:58:33.247Z,99284.47
2019-06-15T07:08:48.077Z,99305.59
2019-06-15T07:11:38.280Z,99316.72
2019-06-15T07:14:36.310Z,99320.00
2019-06-15T07:17:26.477Z,99324.39
2019-06-15T07:19:51.058Z,99336.41
2019-06-15T07:22:19.688Z,99341.15
2019-06-15T07:24:49.591Z,99346.81
2019-06-15T07:27:19.108Z,99344.83
2019-06-15T07:29:48.727Z,99350.42
2019-06-15T07:32:18.176Z,99342.70
2019-06-15T07:34:48.055Z,99353.91
2019-06-15T07:37:17.480Z,99369.26
2019-06-15T07:39:46.950Z,99363.02
2019-06-15T07:42:16.352Z,99374.50
2019-06-15T07:44:46.043Z,99374.88
2019-06-15T07:47:15.721Z,99367.16
2019-06-15T07:49:45.206Z,99377.70
2019-06-15T07:52:14.934Z,99377.90
2019-06-15T07:54:44.438Z,99372.75
2019-06-15T07:57:14.286Z,99376.70
2019-06-15T07:59:44.236Z,99380.09
2019-06-15T08:02:13.629Z,99385.04
2019-06-15T08:04:43.322Z,99384.35
2019-06-15T08:07:12.724Z,99391.13
2019-06-15T08:09:42.425Z,99394.88
2019-06-15T08:12:11.815Z,99393.52
2019-06-15T08:14:41.254Z,99393.96
2019-06-15T08:17:10.642Z,99400.91
2019-06-15T08:19:40.077Z,99404.63
2019-06-15T08:22:09.478Z,99402.78
2019-06-15T08:24:38.899Z,99422.23
2019-06-15T08:27:08.325Z,99424.17
2019-06-15T08:29:37.962Z,99432.84
2019-06-15T08:32:07.510Z,99439.55
2019-06-15T08:34:36.935Z,99447.52
2019-06-15T08:37:06.594Z,99442.84
2019-06-15T08:39:36.070Z,99453.22
2019-06-15T08:42:05.607Z,99455.90
2019-06-15T08:44:35.058Z,99454.46
2019-06-15T08:47:05.733Z,99450.27
2019-06-15T08:49:35.227Z,99460.73
2019-06-15T08:52:04.615Z,99463.84
2019-06-15T08:54:34.020Z,99466.88
2019-06-15T08:57:03.866Z,99474.72
2019-06-15T08:59:33.380Z,99480.23
2019-06-15T09:02:02.805Z,99488.72
2019-06-15T09:04:32.546Z,99502.08
2019-06-15T09:07:02.312Z,99499.19
2019-06-15T09:09:32.020Z,99498.71
2019-06-15T09:12:01.809Z,99494.86
2019-06-15T09:14:31.229Z,99500.92
2019-06-15T09:17:00.620Z,99507.33
2019-06-15T09:19:30.133Z,99512.65
2019-06-15T09:22:00.273Z,99512.66
2019-06-15T09:24:30.130Z,99524.18
2019-06-15T09:27:00.172Z,99520.13
2019-06-15T09:29:30.221Z,99527.63
2019-06-15T09:32:00.387Z,99534.33
2019-06-15T09:34:30.354Z,99545.80
2019-06-15T09:37:00.766Z,99550.28
2019-06-15T09:39:30.872Z,99546.00
2019-06-15T09:42:00.890Z,99558.21
2019-06-15T09:44:30.739Z,99556.30
2019-06-15T09:47:01.017Z,99563.86
2019-06-15T09:49:31.039Z,99563.05
2019-06-15T09:52:01.263Z,99559.11
2019-06-15T09:54:31.570Z,99570.89
2019-06-15T09:57:01.725Z,99576.62
2019-06-15T09:59:31.797Z,99579.28
2019-06-15T10:02:01.690Z,99586.38
2019-06-15T10:04:31.806Z,99586.63
2019-06-15T10:07:02.680Z,99589.59
2019-06-15T10:09:32.209Z,99594.77
2019-06-15T10:12:02.580Z,99589.89
2019-06-15T10:14:32.133Z,99593.56
2019-06-15T10:17:02.412Z,99590.73
2019-06-15T10:19:32.179Z,99594.73
2019-06-15T10:22:02.305Z,99593.75
2019-06-15T10:24:32.648Z,99601.71
2019-06-15T10:27:02.779Z,99604.67
2019-06-15T10:29:41.698Z,99605.08
2019-06-15T10:32:03.715Z,99610.33
2019-06-15T10:34:33.201Z,99605.95
2019-06-15T10:37:02.795Z,99610.27
2019-06-15T10:39:32.793Z,99606.12
2019-06-15T10:42:03.066Z,99605.25
2019-06-15T10:44:33.073Z,99604.54
2019-06-15T10:47:03.104Z,99614.17
2019-06-15T10:49:33.208Z,99610.13
2019-06-15T10:52:03.484Z,99613.93
2019-06-15T10:54:33.516Z,99613.45
2019-06-15T10:57:04.012Z,99617.48
2019-06-15T10:59:33.983Z,99619.77
2019-06-15T11:02:04.165Z,99621.59
2019-06-15T11:04:34.552Z,99624.95
2019-06-15T11:07:04.955Z,99625.22
2019-06-15T11:09:34.419Z,99622.91
2019-06-15T11:12:04.800Z,99622.75
2019-06-15T11:14:35.099Z,99622.15
2019-06-15T11:17:05.294Z,99633.38
2019-06-15T11:19:34.965Z,99624.66
2019-06-15T11:22:05.222Z,99627.28
2019-06-15T11:24:35.634Z,99625.83
2019-06-15T11:27:05.889Z,99629.31
2019-06-15T11:29:35.761Z,99628.55
2019-06-15T11:32:05.508Z,99631.70
2019-06-15T11:34:36.005Z,99633.91
2019-06-15T11:37:06.183Z,99630.38
2019-06-15T11:39:35.886Z,99635.58
2019-06-15T11:42:06.340Z,99639.27
2019-06-15T11:44:36.989Z,99641.45
2019-06-15T11:47:06.479Z,99639.67
2019-06-15T11:49:36.659Z,99634.02
2019-06-15T11:52:06.482Z,99639.61
2019-06-15T11:54:36.974Z,99638.72
2019-06-15T11:57:07.127Z,99641.30
2019-06-15T11:59:37.386Z,99637.45
2019-06-15T12:02:07.123Z,99649.12
2019-06-15T12:04:37.465Z,99648.21
2019-06-15T12:07:07.883Z,99652.71
2019-06-15T12:09:37.515Z,99654.30
2019-06-15T12:12:07.894Z,99655.12
2019-06-15T12:14:38.179Z,99655.00
2019-06-15T12:17:07.984Z,99652.39
2019-06-15T12:19:38.162Z,99650.70
2019-06-15T12:22:08.092Z,99650.47
2019-06-15T12:24:38.106Z,99652.74
2019-06-15T12:27:08.345Z,99659.52
2019-06-15T12:29:38.543Z,99662.16
2019-06-15T12:32:08.949Z,99662.87
2019-06-15T12:34:41.937Z,99669.88
2019-06-15T12:37:11.400Z,99670.19
2019-06-15T12:39:42.112Z,99673.28
2019-06-15T12:42:11.904Z,99674.94
2019-06-15T12:44:41.640Z,99674.48
2019-06-15T12:47:11.445Z,99667.77
2019-06-15T12:49:41.189Z,99670.17
2019-06-15T12:52:10.940Z,99668.39
2019-06-15T12:54:40.588Z,99661.49
2019-06-15T12:57:10.251Z,99670.05
2019-06-15T12:59:40.440Z,99674.70
2019-06-15T13:02:10.497Z,99679.69
2019-06-15T13:04:40.532Z,99676.08
2019-06-15T13:07:10.654Z,99674.41
2019-06-15T13:09:40.762Z,99678.16
2019-06-15T13:12:10.913Z,99685.82
2019-06-15T13:14:40.967Z,99682.19
2019-06-15T13:17:11.120Z,99679.88
2019-06-15T13:19:41.268Z,99684.84
2019-06-15T13:22:11.444Z,99677.95
2019-06-15T13:24:41.599Z,99678.09
2019-06-15T13:27:11.858Z,99681.20
2019-06-15T13:29:41.772Z,99677.31
2019-06-15T13:32:12.005Z,99686.84
2019-06-15T13:34:42.015Z,99690.61
2019-06-15T13:37:12.406Z,99691.31
2019-06-15T13:39:42.255Z,99682.47
2019-06-15T13:42:12.445Z,99684.81
2019-06-15T13:44:42.765Z,99688.98
2019-06-15T13:47:12.905Z,99683.74
2019-06-15T13:49:43.074Z,99686.69
2019-06-15T13:52:12.981Z,99691.23
2019-06-15T13:54:43.507Z,99692.33
2019-06-15T13:57:13.219Z,99685.55
2019-06-15T13:59:43.360Z,99688.35
2019-06-15T14:02:13.440Z,99690.17
2019-06-15T14:04:43.907Z,99692.86
2019-06-15T14:07:13.918Z,99688.42
2019-06-15T14:09:44.296Z,99702.07
2019-06-15T14:12:14.007Z,99689.30
2019-06-15T14:14:44.383Z,99687.23
2019-06-15T14:17:14.250Z,99700.71
2019-06-15T14:19:44.748Z,99697.30
2019-06-15T14:22:14.731Z,99697.66
2019-06-15T14:24:44.869Z,99696.49
2019-06-15T14:27:14.714Z,99695.80
2019-06-15T14:29:44.987Z,99689.86
2019-06-15T14:32:14.954Z,99690.02
2019-06-15T14:34:45.339Z,99692.02
2019-06-15T14:37:15.122Z,99686.38
2019-06-15T14:39:45.593Z,99688.05
2019-06-15T14:42:15.474Z,99688.87
2019-06-15T14:44:45.346Z,99690.30
2019-06-15T14:47:15.437Z,99690.86
2019-06-15T14:49:45.985Z,99691.02
2019-06-15T14:52:15.734Z,99695.84
2019-06-15T14:54:46.093Z,99699.47
2019-06-15T14:57:16.249Z,99702.02
2019-06-15T14:59:59.376Z,99701.88
2019-06-15T15:02:20.015Z,99698.29
2019-06-15T15:04:49.496Z,99701.56
2019-06-15T15:07:18.895Z,99692.21
2019-06-15T15:09:50.023Z,99690.71
2019-06-15T15:12:19.930Z,99682.05
2019-06-15T15:14:49.392Z,99685.54
2019-06-15T15:17:18.815Z,99686.19
2019-06-15T15:19:48.210Z,99689.73
2019-06-15T15:22:17.840Z,99683.25
2019-06-15T15:24:47.606Z,99675.19
2019-06-15T15:27:17.403Z,99679.73
2019-06-15T15:29:47.128Z,99677.42
2019-06-15T15:32:27.445Z,99684.77
2019-06-15T15:34:48.865Z,99689.11
2019-06-15T15:37:18.421Z,99688.11
2019-06-15T15:39:48.081Z,99686.08
2019-06-15T15:42:18.051Z,99679.13
2019-06-15T15:44:47.752Z,99678.36
2019-06-15T15:47:17.952Z,99678.47
2019-06-15T15:49:48.361Z,99683.60
2019-06-15T15:52:18.156Z,99681.55
2019-06-15T15:54:48.316Z,99684.42
2019-06-15T15:57:19.590Z,99680.61
2019-06-15T15:59:49.241Z,99682.30
2019-06-15T16:02:18.973Z,99683.06
2019-06-15T16:04:49.546Z,99683.65
2019-06-15T16:07:19.201Z,99681.13
2019-06-15T16:09:49.089Z,99685.98
2019-06-15T16:15:28.222Z,99687.14
2019-06-15T16:17:57.890Z,99686.28
2019-06-15T16:20:27.544Z,99692.98
2019-06-15T16:22:57.200Z,99687.33
2019-06-15T16:25:27.658Z,99684.56
2019-06-15T16:27:57.304Z,99678.64
2019-06-15T16:31:01.947Z,99679.84
2019-06-15T16:33:11.566Z,99686.39
2019-06-15T16:35:40.938Z,99686.00
2019-06-15T16:38:10.666Z,99684.70
2019-06-15T16:40:40.675Z,99681.75
2019-06-15T16:43:10.586Z,99673.65
2019-06-15T16:45:40.313Z,99682.33
2019-06-15T16:48:09.715Z,99681.89
2019-06-15T16:50:39.432Z,99689.06
2019-06-15T16:53:08.872Z,99688.53
2019-06-15T16:55:38.600Z,99690.08
2019-06-15T16:58:08.105Z,99679.33
2019-06-15T17:00:37.923Z,99681.97
2019-06-15T17:03:20.699Z,99676.77
2019-06-15T17:05:39.140Z,99682.01
2019-06-15T17:08:20.998Z,99684.83
2019-06-15T17:10:58.446Z,99689.11
2019-06-15T17:13:25.842Z,99692.61
2019-06-15T17:15:57.165Z,99689.64
2019-06-15T17:18:26.739Z,99687.48
2019-06-15T17:21:07.008Z,99686.13
2019-06-15T17:23:37.732Z,99684.42
2019-06-15T17:26:08.629Z,99686.95
2019-06-15T17:28:38.291Z,99686.70
2019-06-15T17:31:07.980Z,99689.88
2019-06-15T17:33:38.573Z,99692.32
2019-06-15T17:36:08.447Z,99694.84
2019-06-15T17:38:37.832Z,99696.03
2019-06-15T17:41:07.228Z,99697.66
2019-06-15T17:43:36.689Z,99703.52
2019-06-15T17:46:07.210Z,99707.62
2019-06-15T17:48:38.667Z,99703.41
2019-06-15T17:51:09.898Z,99702.30
2019-06-15T17:53:39.369Z,99698.41
2019-06-15T17:56:09.198Z,99701.92
2019-06-15T17:58:40.380Z,99703.83
2019-06-15T18:01:09.988Z,99705.20
2019-06-15T18:03:50.332Z,99698.89
2019-06-15T18:06:10.608Z,99689.11
2019-06-15T18:08:40.746Z,99699.34
2019-06-15T18:11:10.282Z,99705.21
2019-06-15T18:13:39.690Z,99702.73
2019-06-15T18:16:12.374Z,99703.80
2019-06-15T18:18:41.876Z,99706.86
2019-06-15T18:21:11.294Z,99704.65
2019-06-15T18:23:41.256Z,99710.84
2019-06-15T18:26:10.685Z,99714.66
2019-06-15T18:28:40.554Z,99716.52
2019-06-15T18:31:10.203Z,99719.00
2019-06-15T18:33:39.734Z,99716.32
2019-06-15T18:36:09.146Z,99714.06
2019-06-15T18:38:38.804Z,99711.55
2019-06-15T18:41:08.212Z,99713.42
2019-06-15T18:43:37.956Z,99711.84
2019-06-15T18:46:07.407Z,99711.18
2019-06-15T18:48:36.861Z,99712.02
2019-06-15T18:51:07.576Z,99709.84
2019-06-15T18:53:39.436Z,99713.05
2019-06-15T18:56:09.278Z,99720.91
2019-06-15T18:58:38.713Z,99726.27
2019-06-15T19:01:08.281Z,99729.46
2019-06-15T19:03:38.046Z,99732.04
2019-06-15T19:06:07.539Z,99729.64
2019-06-15T19:08:37.801Z,99727.39
2019-06-15T19:11:07.687Z,99730.29
2019-06-15T19:13:37.360Z,99730.42
2019-06-15T19:16:07.171Z,99741.67
2019-06-15T19:18:37.103Z,99742.78
2019-06-15T19:21:07.111Z,99746.45
2019-06-15T19:23:36.934Z,99759.92
2019-06-15T19:26:06.623Z,99763.13
2019-06-15T19:28:37.036Z,99759.80
2019-06-15T19:31:06.788Z,99757.52
2019-06-15T19:33:37.660Z,99754.38
2019-06-15T19:36:08.342Z,99751.77
2019-06-15T19:38:37.730Z,99744.88
2019-06-15T19:41:07.231Z,99745.32
2019-06-15T19:43:36.685Z,99744.73
2019-06-15T19:46:06.724Z,99740.22
2019-06-15T19:48:37.023Z,99738.88
2019-06-15T19:51:09.393Z,99745.47
2019-06-15T19:53:37.718Z,99758.11
2019-06-15T19:56:07.135Z,99757.97
2019-06-15T19:58:36.532Z,99760.41
2019-06-15T20:01:06.783Z,99753.86
2019-06-15T20:03:36.650Z,99758.57
2019-06-15T20:06:06.673Z,99760.80
2019-06-15T20:08:36.513Z,99767.75
2019-06-15T20:11:07.264Z,99775.35
2019-06-15T20:13:37.245Z,99783.42
2019-06-15T20:16:07.823Z,99783.03
2019-06-15T20:18:37.726Z,99789.08
2019-06-15T20:21:07.506Z,99790.73
2019-06-15T20:23:37.691Z,99798.48
2019-06-15T20:26:07.465Z,99797.86
2019-06-15T20:28:37.144Z,99800.77
2019-06-15T20:31:06.855Z,99798.89
2019-06-15T20:33:37.034Z,99788.94
2019-06-15T20:36:06.953Z,99790.91
2019-06-15T20:38:36.605Z,99796.22
2019-06-15T20:41:07.369Z,99799.53
2019-06-15T20:43:37.269Z,99795.87
2019-06-15T20:46:07.580Z,99797.02
2019-06-15T20:48:37.015Z,99799.85
2019-06-15T20:51:10.151Z,99806.98
2019-06-15T20:53:38.351Z,99800.91
2019-06-15T20:56:08.028Z,99805.50
2019-06-15T20:58:37.754Z,99812.47
2019-06-15T21:01:07.326Z,99815.52
2019-06-15T21:03:36.954Z,99808.11
2019-06-15T21:06:07.029Z,99815.80
2019-06-15T21:08:36.839Z,99815.83
2019-06-15T21:11:07.082Z,99825.81
2019-06-15T21:13:37.598Z,99823.41
2019-06-15T21:16:07.339Z,99822.16
2019-06-15T21:18:37.359Z,99826.20
2019-06-15T21:21:07.185Z,99830.73
2019-06-15T21:23:37.449Z,99833.78
2019-06-15T21:26:07.230Z,99839.94
2019-06-15T21:28:37.060Z,99838.08
2019-06-15T21:31:07.243Z,99845.59
2019-06-15T21:33:36.677Z,99856.27
2019-06-15T21:36:06.463Z,99858.34
2019-06-15T21:38:36.380Z,99862.73
2019-06-15T21:41:07.819Z,99863.35
2019-06-15T21:43:37.417Z,99869.97
2019-06-15T21:46:06.807Z,99881.08
2019-06-15T21:48:36.599Z,99890.59
2019-06-15T21:51:07.899Z,99882.07
2019-06-15T21:53:56.754Z,99884.14
2019-06-15T21:56:29.075Z,99884.86
2019-06-15T21:58:57.349Z,99893.28
2019-06-15T22:01:37.914Z,99901.72
2019-06-15T22:04:07.528Z,99907.06
2019-06-15T22:06:37.691Z,99909.63
2019-06-15T22:09:10.354Z,99914.30
2019-06-15T22:11:39.931Z,99921.23
2019-06-15T22:14:09.349Z,99919.88
2019-06-15T22:16:38.773Z,99917.84
2019-06-15T22:19:08.330Z,99919.61
2019-06-15T22:21:38.778Z,99925.18
2019-06-15T22:24:08.271Z,99931.22
2019-06-15T22:26:37.805Z,99934.70
2019-06-15T22:29:07.609Z,99937.78
2019-06-15T22:31:37.164Z,99934.23
2019-06-15T22:34:07.110Z,99935.58
2019-06-15T22:36:37.088Z,99938.42
2019-06-15T22:39:07.796Z,99943.91
2019-06-15T22:41:37.262Z,99944.31
2019-06-15T22:44:07.252Z,99956.14
2019-06-15T22:46:37.303Z,99954.52
2019-06-15T22:49:07.568Z,99957.17
2019-06-15T22:51:37.473Z,99960.19
2019-06-15T22:54:07.378Z,99964.31
2019-06-15T22:56:38.996Z,99962.70
2019-06-15T22:59:08.644Z,99964.30
2019-06-15T23:01:38.090Z,99960.92
2019-06-15T23:04:07.751Z,99958.47
2019-06-15T23:06:42.927Z,99965.92
2019-06-15T23:09:10.462Z,99971.30
2019-06-15T23:11:40.117Z,99967.54
2019-06-15T23:14:09.764Z,99966.78
2019-06-15T23:16:39.162Z,99970.49
2019-06-15T23:19:08.602Z,99979.70
2019-06-15T23:21:38.045Z,99984.15
2019-06-15T23:24:08.132Z,99980.41
2019-06-15T23:26:38.485Z,99981.28
2019-06-15T23:29:08.320Z,99980.59
2019-06-15T23:31:38.374Z,99977.44
2019-06-15T23:34:08.325Z,99971.72
2019-06-15T23:36:52.787Z,99968.88
2019-06-15T23:39:11.329Z,99971.63
2019-06-15T23:41:41.017Z,99973.47
2019-06-15T23:44:10.496Z,99973.30
2019-06-15T23:46:40.176Z,99974.61
2019-06-15T23:49:09.629Z,99971.37
2019-06-15T23:51:39.342Z,99977.42
2019-06-15T23:54:08.843Z,99967.59
2019-06-15T23:56:38.884Z,99969.55
2019-06-15T23:59:08.876Z,99966.88
